sensor_id;sensor_type;location;lat;lon;timestamp;P1;durP1;ratioP1;P2;durP2;ratioP2
48403;SDS011;34202;52.536;6.042;2022-10-19T00:02:00;5.20;;;3.60;;
48403;SDS011;34202;52.536;6.042;2022-10-19T00:07:00;5.10;;;2.80;;
48403;SDS011;34202;52.536;6.042;2022-10-19T00:12:01;9.20;;;3.30;;
48403;SDS011;34202;52.536;6.042;2022-10-19T00:17:01;9.30;;;3.10;;
48403;SDS011;34202;52.536;6.042;2022-10-19T00:22:01;5.00;;;2.50;;
48403;SDS011;34202;52.536;6.042;2022-10-19T00:27:02;4.70;;;2.80;;
48403;SDS011;34202;52.536;6.042;2022-10-19T00:32:02;9.60;;;3.40;;
48403;SDS011;34202;52.536;6.042;2022-10-19T00:37:02;6.50;;;2.60;;
48403;SDS011;34202;52.536;6.042;2022-10-19T00:42:03;6.40;;;2.10;;
48403;SDS011;34202;52.536;6.042;2022-10-19T00:47:04;6.30;;;2.70;;
48403;SDS011;34202;52.536;6.042;2022-10-19T00:52:08;4.00;;;2.50;;
48403;SDS011;34202;52.536;6.042;2022-10-19T00:57:12;3.90;;;2.30;;
48403;SDS011;34202;52.536;6.042;2022-10-19T01:02:13;4.30;;;2.00;;
48403;SDS011;34202;52.536;6.042;2022-10-19T01:07:13;2.70;;;1.80;;
48403;SDS011;34202;52.536;6.042;2022-10-19T01:12:20;5.80;;;1.80;;
48403;SDS011;34202;52.536;6.042;2022-10-19T01:33:54;6.40;;;2.00;;
48403;SDS011;34202;52.536;6.042;2022-10-19T01:39:09;5.50;;;2.40;;
48403;SDS011;34202;52.536;6.042;2022-10-19T01:44:25;2.80;;;1.60;;
48403;SDS011;34202;52.536;6.042;2022-10-19T01:49:50;5.20;;;2.20;;
48403;SDS011;34202;52.536;6.042;2022-10-19T01:54:55;2.30;;;1.60;;
48403;SDS011;34202;52.536;6.042;2022-10-19T01:59:57;4.50;;;2.90;;
48403;SDS011;34202;52.536;6.042;2022-10-19T02:05:04;2.70;;;2.10;;
48403;SDS011;34202;52.536;6.042;2022-10-19T02:10:06;2.20;;;2.00;;
48403;SDS011;34202;52.536;6.042;2022-10-19T02:15:11;3.00;;;2.10;;
48403;SDS011;34202;52.536;6.042;2022-10-19T02:20:16;2.70;;;2.10;;
48403;SDS011;34202;52.536;6.042;2022-10-19T02:25:16;3.70;;;2.00;;
48403;SDS011;34202;52.536;6.042;2022-10-19T02:30:17;3.90;;;2.30;;
48403;SDS011;34202;52.536;6.042;2022-10-19T02:35:19;4.10;;;2.50;;
48403;SDS011;34202;52.536;6.042;2022-10-19T02:40:19;4.00;;;1.90;;
48403;SDS011;34202;52.536;6.042;2022-10-19T02:45:21;2.20;;;2.00;;
48403;SDS011;34202;52.536;6.042;2022-10-19T02:55:27;3.30;;;2.00;;
48403;SDS011;34202;52.536;6.042;2022-10-19T03:00:28;4.30;;;2.50;;
48403;SDS011;34202;52.536;6.042;2022-10-19T03:05:29;3.90;;;2.20;;
48403;SDS011;34202;52.536;6.042;2022-10-19T03:10:29;3.50;;;2.00;;
48403;SDS011;34202;52.536;6.042;2022-10-19T03:15:29;3.90;;;1.90;;
48403;SDS011;34202;52.536;6.042;2022-10-19T03:20:30;3.90;;;1.80;;
48403;SDS011;34202;52.536;6.042;2022-10-19T03:25:30;2.20;;;2.00;;
48403;SDS011;34202;52.536;6.042;2022-10-19T03:30:30;5.00;;;2.40;;
48403;SDS011;34202;52.536;6.042;2022-10-19T03:35:31;2.60;;;2.10;;
48403;SDS011;34202;52.536;6.042;2022-10-19T03:40:31;3.30;;;1.90;;
48403;SDS011;34202;52.536;6.042;2022-10-19T03:45:31;2.40;;;2.20;;
48403;SDS011;34202;52.536;6.042;2022-10-19T03:50:32;2.20;;;2.00;;
48403;SDS011;34202;52.536;6.042;2022-10-19T03:55:32;6.60;;;2.50;;
48403;SDS011;34202;52.536;6.042;2022-10-19T04:00:32;2.90;;;2.30;;
48403;SDS011;34202;52.536;6.042;2022-10-19T04:05:33;9.80;;;3.20;;
48403;SDS011;34202;52.536;6.042;2022-10-19T04:10:33;3.80;;;2.20;;
48403;SDS011;34202;52.536;6.042;2022-10-19T04:15:33;4.60;;;3.00;;
48403;SDS011;34202;52.536;6.042;2022-10-19T04:20:33;6.70;;;2.70;;
48403;SDS011;34202;52.536;6.042;2022-10-19T04:25:34;4.30;;;2.80;;
48403;SDS011;34202;52.536;6.042;2022-10-19T04:30:34;6.00;;;2.90;;
48403;SDS011;34202;52.536;6.042;2022-10-19T04:35:35;3.90;;;2.40;;
48403;SDS011;34202;52.536;6.042;2022-10-19T04:40:35;5.90;;;2.50;;
48403;SDS011;34202;52.536;6.042;2022-10-19T04:45:35;5.30;;;2.40;;
48403;SDS011;34202;52.536;6.042;2022-10-19T04:50:36;3.90;;;2.60;;
48403;SDS011;34202;52.536;6.042;2022-10-19T04:55:40;10.50;;;2.70;;
48403;SDS011;34202;52.536;6.042;2022-10-19T05:00:41;3.30;;;2.40;;
48403;SDS011;34202;52.536;6.042;2022-10-19T05:05:41;3.50;;;2.40;;
48403;SDS011;34202;52.536;6.042;2022-10-19T05:10:41;5.40;;;2.70;;
48403;SDS011;34202;52.536;6.042;2022-10-19T05:15:42;5.10;;;2.40;;
48403;SDS011;34202;52.536;6.042;2022-10-19T05:20:42;4.90;;;2.50;;
48403;SDS011;34202;52.536;6.042;2022-10-19T05:25:42;6.90;;;2.50;;
48403;SDS011;34202;52.536;6.042;2022-10-19T05:30:43;7.80;;;2.20;;
48403;SDS011;34202;52.536;6.042;2022-10-19T05:35:43;3.20;;;2.50;;
48403;SDS011;34202;52.536;6.042;2022-10-19T05:40:44;7.30;;;2.40;;
48403;SDS011;34202;52.536;6.042;2022-10-19T05:45:45;3.50;;;2.70;;
48403;SDS011;34202;52.536;6.042;2022-10-19T05:50:52;4.90;;;2.80;;
48403;SDS011;34202;52.536;6.042;2022-10-19T05:55:53;10.00;;;4.30;;
48403;SDS011;34202;52.536;6.042;2022-10-19T06:00:54;11.90;;;4.10;;
48403;SDS011;34202;52.536;6.042;2022-10-19T06:05:56;5.30;;;2.60;;
48403;SDS011;34202;52.536;6.042;2022-10-19T06:11:31;6.70;;;2.70;;
48403;SDS011;34202;52.536;6.042;2022-10-19T06:16:25;4.90;;;2.80;;
48403;SDS011;34202;52.536;6.042;2022-10-19T06:21:27;5.50;;;2.10;;
48403;SDS011;34202;52.536;6.042;2022-10-19T06:26:30;9.10;;;2.90;;
48403;SDS011;34202;52.536;6.042;2022-10-19T06:31:33;9.50;;;3.20;;
48403;SDS011;34202;52.536;6.042;2022-10-19T06:36:35;7.50;;;2.10;;
48403;SDS011;34202;52.536;6.042;2022-10-19T06:41:35;3.80;;;2.20;;
48403;SDS011;34202;52.536;6.042;2022-10-19T06:46:35;8.80;;;2.30;;
48403;SDS011;34202;52.536;6.042;2022-10-19T06:51:36;5.40;;;2.60;;
48403;SDS011;34202;52.536;6.042;2022-10-19T06:56:36;7.60;;;2.50;;
48403;SDS011;34202;52.536;6.042;2022-10-19T07:01:36;7.60;;;2.50;;
48403;SDS011;34202;52.536;6.042;2022-10-19T07:06:37;11.50;;;2.60;;
48403;SDS011;34202;52.536;6.042;2022-10-19T07:11:37;4.30;;;2.30;;
48403;SDS011;34202;52.536;6.042;2022-10-19T07:16:37;4.70;;;2.20;;
48403;SDS011;34202;52.536;6.042;2022-10-19T07:21:38;5.80;;;2.80;;
48403;SDS011;34202;52.536;6.042;2022-10-19T07:26:40;6.30;;;2.30;;
48403;SDS011;34202;52.536;6.042;2022-10-19T07:31:40;5.00;;;2.50;;
48403;SDS011;34202;52.536;6.042;2022-10-19T07:36:43;5.20;;;3.30;;
48403;SDS011;34202;52.536;6.042;2022-10-19T07:41:45;6.00;;;2.50;;
48403;SDS011;34202;52.536;6.042;2022-10-19T07:46:45;7.80;;;2.20;;
48403;SDS011;34202;52.536;6.042;2022-10-19T07:51:46;6.00;;;2.90;;
48403;SDS011;34202;52.536;6.042;2022-10-19T07:56:46;8.50;;;3.00;;
48403;SDS011;34202;52.536;6.042;2022-10-19T08:01:46;6.10;;;2.60;;
48403;SDS011;34202;52.536;6.042;2022-10-19T08:06:48;6.50;;;2.00;;
48403;SDS011;34202;52.536;6.042;2022-10-19T08:11:48;5.30;;;2.20;;
48403;SDS011;34202;52.536;6.042;2022-10-19T08:16:48;10.60;;;3.10;;
48403;SDS011;34202;52.536;6.042;2022-10-19T08:21:50;16.30;;;3.10;;
48403;SDS011;34202;52.536;6.042;2022-10-19T08:26:50;8.90;;;2.40;;
48403;SDS011;34202;52.536;6.042;2022-10-19T08:31:51;5.60;;;2.60;;
48403;SDS011;34202;52.536;6.042;2022-10-19T08:36:52;8.00;;;2.30;;
48403;SDS011;34202;52.536;6.042;2022-10-19T08:42:12;7.10;;;2.20;;
48403;SDS011;34202;52.536;6.042;2022-10-19T08:47:25;12.50;;;2.40;;
48403;SDS011;34202;52.536;6.042;2022-10-19T08:52:31;6.70;;;1.80;;
48403;SDS011;34202;52.536;6.042;2022-10-19T09:03:11;6.00;;;2.00;;
48403;SDS011;34202;52.536;6.042;2022-10-19T09:08:12;7.20;;;1.80;;
48403;SDS011;34202;52.536;6.042;2022-10-19T09:13:33;8.90;;;2.10;;
48403;SDS011;34202;52.536;6.042;2022-10-19T09:18:37;13.30;;;3.70;;
48403;SDS011;34202;52.536;6.042;2022-10-19T09:23:39;9.90;;;2.20;;
48403;SDS011;34202;52.536;6.042;2022-10-19T09:34:12;5.80;;;1.60;;
48403;SDS011;34202;52.536;6.042;2022-10-19T09:39:21;8.80;;;1.60;;
48403;SDS011;34202;52.536;6.042;2022-10-19T09:44:22;10.80;;;1.80;;
48403;SDS011;34202;52.536;6.042;2022-10-19T09:49:39;11.10;;;2.00;;
48403;SDS011;34202;52.536;6.042;2022-10-19T09:54:43;14.90;;;3.30;;
48403;SDS011;34202;52.536;6.042;2022-10-19T09:59:43;13.20;;;1.70;;
48403;SDS011;34202;52.536;6.042;2022-10-19T10:04:44;7.10;;;1.20;;
48403;SDS011;34202;52.536;6.042;2022-10-19T10:10:10;6.70;;;2.40;;
48403;SDS011;34202;52.536;6.042;2022-10-19T10:15:25;10.80;;;2.10;;
48403;SDS011;34202;52.536;6.042;2022-10-19T10:20:29;8.10;;;1.40;;
48403;SDS011;34202;52.536;6.042;2022-10-19T10:25:32;9.80;;;1.40;;
48403;SDS011;34202;52.536;6.042;2022-10-19T10:30:35;7.90;;;1.30;;
48403;SDS011;34202;52.536;6.042;2022-10-19T10:35:36;6.10;;;1.20;;
48403;SDS011;34202;52.536;6.042;2022-10-19T10:40:36;10.30;;;1.60;;
48403;SDS011;34202;52.536;6.042;2022-10-19T10:45:41;9.20;;;2.00;;
48403;SDS011;34202;52.536;6.042;2022-10-19T10:50:47;9.00;;;2.80;;
48403;SDS011;34202;52.536;6.042;2022-10-19T10:55:53;6.10;;;1.50;;
48403;SDS011;34202;52.536;6.042;2022-10-19T11:00:55;8.20;;;2.80;;
48403;SDS011;34202;52.536;6.042;2022-10-19T11:05:57;11.20;;;1.90;;
48403;SDS011;34202;52.536;6.042;2022-10-19T11:10:59;7.20;;;1.50;;
48403;SDS011;34202;52.536;6.042;2022-10-19T11:16:12;9.10;;;1.90;;
48403;SDS011;34202;52.536;6.042;2022-10-19T11:32:02;13.40;;;2.30;;
48403;SDS011;34202;52.536;6.042;2022-10-19T11:37:29;16.10;;;1.70;;
48403;SDS011;34202;52.536;6.042;2022-10-19T11:48:25;11.00;;;1.80;;
48403;SDS011;34202;52.536;6.042;2022-10-19T12:15:02;10.30;;;1.80;;
48403;SDS011;34202;52.536;6.042;2022-10-19T12:20:36;11.90;;;1.70;;
48403;SDS011;34202;52.536;6.042;2022-10-19T12:25:40;9.20;;;1.70;;
48403;SDS011;34202;52.536;6.042;2022-10-19T12:30:44;11.20;;;1.80;;
48403;SDS011;34202;52.536;6.042;2022-10-19T12:35:51;6.90;;;1.20;;
48403;SDS011;34202;52.536;6.042;2022-10-19T12:40:59;16.00;;;1.80;;
48403;SDS011;34202;52.536;6.042;2022-10-19T12:46:17;7.90;;;1.70;;
48403;SDS011;34202;52.536;6.042;2022-10-19T12:51:29;11.80;;;1.70;;
48403;SDS011;34202;52.536;6.042;2022-10-19T12:56:47;15.40;;;2.10;;
48403;SDS011;34202;52.536;6.042;2022-10-19T13:01:50;9.80;;;2.50;;
48403;SDS011;34202;52.536;6.042;2022-10-19T13:07:01;5.90;;;1.90;;
48403;SDS011;34202;52.536;6.042;2022-10-19T13:22:49;10.00;;;1.90;;
48403;SDS011;34202;52.536;6.042;2022-10-19T13:38:38;5.50;;;1.50;;
48403;SDS011;34202;52.536;6.042;2022-10-19T13:59:40;12.50;;;1.80;;
48403;SDS011;34202;52.536;6.042;2022-10-19T14:04:50;13.90;;;2.20;;
48403;SDS011;34202;52.536;6.042;2022-10-19T14:15:26;6.10;;;1.50;;
48403;SDS011;34202;52.536;6.042;2022-10-19T14:25:30;7.20;;;1.70;;
48403;SDS011;34202;52.536;6.042;2022-10-19T14:30:33;4.90;;;2.30;;
48403;SDS011;34202;52.536;6.042;2022-10-19T14:35:35;6.30;;;1.50;;
48403;SDS011;34202;52.536;6.042;2022-10-19T14:40:38;7.50;;;1.50;;
48403;SDS011;34202;52.536;6.042;2022-10-19T14:45:40;5.60;;;1.50;;
48403;SDS011;34202;52.536;6.042;2022-10-19T14:50:48;9.10;;;1.90;;
48403;SDS011;34202;52.536;6.042;2022-10-19T14:55:52;4.90;;;1.50;;
48403;SDS011;34202;52.536;6.042;2022-10-19T15:00:55;12.40;;;2.20;;
48403;SDS011;34202;52.536;6.042;2022-10-19T15:05:59;10.40;;;2.30;;
48403;SDS011;34202;52.536;6.042;2022-10-19T15:11:03;4.00;;;1.50;;
48403;SDS011;34202;52.536;6.042;2022-10-19T15:16:05;8.90;;;4.10;;
48403;SDS011;34202;52.536;6.042;2022-10-19T15:21:25;10.10;;;2.50;;
48403;SDS011;34202;52.536;6.042;2022-10-19T15:26:26;9.20;;;2.00;;
48403;SDS011;34202;52.536;6.042;2022-10-19T15:31:28;6.90;;;2.10;;
48403;SDS011;34202;52.536;6.042;2022-10-19T15:36:29;5.30;;;2.90;;
48403;SDS011;34202;52.536;6.042;2022-10-19T15:41:36;6.10;;;1.90;;
48403;SDS011;34202;52.536;6.042;2022-10-19T15:51:46;4.40;;;1.70;;
48403;SDS011;34202;52.536;6.042;2022-10-19T15:56:49;5.50;;;1.50;;
48403;SDS011;34202;52.536;6.042;2022-10-19T16:01:51;7.10;;;1.80;;
48403;SDS011;34202;52.536;6.042;2022-10-19T16:06:51;7.40;;;1.60;;
48403;SDS011;34202;52.536;6.042;2022-10-19T16:11:51;6.80;;;1.80;;
48403;SDS011;34202;52.536;6.042;2022-10-19T16:16:55;8.10;;;1.80;;
48403;SDS011;34202;52.536;6.042;2022-10-19T16:21:56;9.80;;;2.30;;
48403;SDS011;34202;52.536;6.042;2022-10-19T16:26:56;8.90;;;2.60;;
48403;SDS011;34202;52.536;6.042;2022-10-19T16:31:57;10.70;;;5.70;;
48403;SDS011;34202;52.536;6.042;2022-10-19T16:36:57;8.80;;;2.40;;
48403;SDS011;34202;52.536;6.042;2022-10-19T16:41:58;4.50;;;2.90;;
48403;SDS011;34202;52.536;6.042;2022-10-19T16:46:58;5.40;;;1.90;;
48403;SDS011;34202;52.536;6.042;2022-10-19T16:51:58;10.50;;;3.10;;
48403;SDS011;34202;52.536;6.042;2022-10-19T16:57:00;5.50;;;2.20;;
48403;SDS011;34202;52.536;6.042;2022-10-19T17:02:00;6.30;;;2.80;;
48403;SDS011;34202;52.536;6.042;2022-10-19T17:07:01;8.40;;;2.00;;
48403;SDS011;34202;52.536;6.042;2022-10-19T17:12:01;14.30;;;3.90;;
48403;SDS011;34202;52.536;6.042;2022-10-19T17:17:03;9.60;;;3.50;;
48403;SDS011;34202;52.536;6.042;2022-10-19T17:22:03;8.60;;;2.50;;
48403;SDS011;34202;52.536;6.042;2022-10-19T17:27:04;8.50;;;2.50;;
48403;SDS011;34202;52.536;6.042;2022-10-19T17:32:04;11.70;;;2.70;;
48403;SDS011;34202;52.536;6.042;2022-10-19T17:37:05;12.20;;;3.80;;
48403;SDS011;34202;52.536;6.042;2022-10-19T17:42:05;5.80;;;2.00;;
48403;SDS011;34202;52.536;6.042;2022-10-19T17:47:05;6.90;;;1.90;;
48403;SDS011;34202;52.536;6.042;2022-10-19T17:52:06;7.40;;;2.60;;
48403;SDS011;34202;52.536;6.042;2022-10-19T17:57:06;9.60;;;3.70;;
48403;SDS011;34202;52.536;6.042;2022-10-19T18:02:06;9.90;;;2.30;;
48403;SDS011;34202;52.536;6.042;2022-10-19T18:07:09;6.90;;;2.10;;
48403;SDS011;34202;52.536;6.042;2022-10-19T18:12:10;6.50;;;2.70;;
48403;SDS011;34202;52.536;6.042;2022-10-19T18:17:12;6.30;;;2.60;;
48403;SDS011;34202;52.536;6.042;2022-10-19T18:22:12;9.10;;;3.20;;
48403;SDS011;34202;52.536;6.042;2022-10-19T18:27:12;7.20;;;3.30;;
48403;SDS011;34202;52.536;6.042;2022-10-19T18:32:13;10.10;;;3.60;;
48403;SDS011;34202;52.536;6.042;2022-10-19T18:37:13;7.60;;;3.40;;
48403;SDS011;34202;52.536;6.042;2022-10-19T18:42:13;10.40;;;3.40;;
48403;SDS011;34202;52.536;6.042;2022-10-19T18:47:15;10.80;;;4.00;;
48403;SDS011;34202;52.536;6.042;2022-10-19T18:52:15;10.00;;;3.60;;
48403;SDS011;34202;52.536;6.042;2022-10-19T18:57:15;5.10;;;3.20;;
48403;SDS011;34202;52.536;6.042;2022-10-19T19:02:16;14.20;;;4.40;;
48403;SDS011;34202;52.536;6.042;2022-10-19T19:07:16;6.40;;;4.30;;
48403;SDS011;34202;52.536;6.042;2022-10-19T19:12:16;5.80;;;3.20;;
48403;SDS011;34202;52.536;6.042;2022-10-19T19:17:17;8.80;;;3.80;;
48403;SDS011;34202;52.536;6.042;2022-10-19T19:22:17;6.90;;;3.30;;
48403;SDS011;34202;52.536;6.042;2022-10-19T19:27:18;10.60;;;3.90;;
48403;SDS011;34202;52.536;6.042;2022-10-19T19:32:23;6.90;;;3.60;;
48403;SDS011;34202;52.536;6.042;2022-10-19T19:37:23;7.00;;;3.90;;
48403;SDS011;34202;52.536;6.042;2022-10-19T19:42:24;7.10;;;3.60;;
48403;SDS011;34202;52.536;6.042;2022-10-19T19:47:24;9.00;;;3.00;;
48403;SDS011;34202;52.536;6.042;2022-10-19T19:52:24;8.40;;;3.00;;
48403;SDS011;34202;52.536;6.042;2022-10-19T19:57:24;6.70;;;3.50;;
48403;SDS011;34202;52.536;6.042;2022-10-19T20:02:25;5.80;;;2.90;;
48403;SDS011;34202;52.536;6.042;2022-10-19T20:07:25;8.10;;;3.50;;
48403;SDS011;34202;52.536;6.042;2022-10-19T20:12:26;9.50;;;3.30;;
48403;SDS011;34202;52.536;6.042;2022-10-19T20:17:26;6.60;;;2.40;;
48403;SDS011;34202;52.536;6.042;2022-10-19T20:22:26;6.70;;;3.00;;
48403;SDS011;34202;52.536;6.042;2022-10-19T20:27:27;12.80;;;2.10;;
48403;SDS011;34202;52.536;6.042;2022-10-19T20:32:27;5.10;;;2.20;;
48403;SDS011;34202;52.536;6.042;2022-10-19T20:37:28;5.70;;;2.70;;
48403;SDS011;34202;52.536;6.042;2022-10-19T20:42:30;11.30;;;2.80;;
48403;SDS011;34202;52.536;6.042;2022-10-19T20:47:30;11.50;;;2.40;;
48403;SDS011;34202;52.536;6.042;2022-10-19T20:52:30;8.10;;;2.30;;
48403;SDS011;34202;52.536;6.042;2022-10-19T20:57:32;8.30;;;2.50;;
48403;SDS011;34202;52.536;6.042;2022-10-19T21:02:32;8.00;;;2.20;;
48403;SDS011;34202;52.536;6.042;2022-10-19T21:07:32;13.30;;;2.50;;
48403;SDS011;34202;52.536;6.042;2022-10-19T21:12:32;5.80;;;2.60;;
48403;SDS011;34202;52.536;6.042;2022-10-19T21:17:33;7.40;;;2.70;;
48403;SDS011;34202;52.536;6.042;2022-10-19T21:22:34;12.00;;;2.50;;
48403;SDS011;34202;52.536;6.042;2022-10-19T21:27:38;8.10;;;3.10;;
48403;SDS011;34202;52.536;6.042;2022-10-19T21:32:38;4.40;;;2.90;;
48403;SDS011;34202;52.536;6.042;2022-10-19T21:37:38;6.30;;;2.80;;
48403;SDS011;34202;52.536;6.042;2022-10-19T21:42:39;7.50;;;3.00;;
48403;SDS011;34202;52.536;6.042;2022-10-19T21:47:39;6.40;;;3.10;;
48403;SDS011;34202;52.536;6.042;2022-10-19T21:52:39;7.10;;;2.90;;
48403;SDS011;34202;52.536;6.042;2022-10-19T21:57:40;4.30;;;3.20;;
48403;SDS011;34202;52.536;6.042;2022-10-19T22:02:40;9.40;;;3.00;;
48403;SDS011;34202;52.536;6.042;2022-10-19T22:07:40;7.40;;;3.40;;
48403;SDS011;34202;52.536;6.042;2022-10-19T22:12:41;6.40;;;3.10;;
48403;SDS011;34202;52.536;6.042;2022-10-19T22:17:41;7.60;;;3.10;;
48403;SDS011;34202;52.536;6.042;2022-10-19T22:22:41;7.10;;;3.80;;
48403;SDS011;34202;52.536;6.042;2022-10-19T22:27:41;11.70;;;4.10;;
48403;SDS011;34202;52.536;6.042;2022-10-19T22:32:42;8.30;;;4.10;;
48403;SDS011;34202;52.536;6.042;2022-10-19T22:37:42;8.40;;;3.80;;
48403;SDS011;34202;52.536;6.042;2022-10-19T22:48:36;15.40;;;4.20;;
48403;SDS011;34202;52.536;6.042;2022-10-19T22:53:36;7.70;;;3.60;;
48403;SDS011;34202;52.536;6.042;2022-10-19T22:58:36;9.50;;;3.80;;
48403;SDS011;34202;52.536;6.042;2022-10-19T23:03:37;7.40;;;4.30;;
48403;SDS011;34202;52.536;6.042;2022-10-19T23:08:39;9.20;;;3.40;;
48403;SDS011;34202;52.536;6.042;2022-10-19T23:13:40;7.30;;;4.00;;
48403;SDS011;34202;52.536;6.042;2022-10-19T23:18:40;12.00;;;4.10;;
48403;SDS011;34202;52.536;6.042;2022-10-19T23:23:41;8.40;;;3.70;;
48403;SDS011;34202;52.536;6.042;2022-10-19T23:28:42;5.30;;;3.10;;
48403;SDS011;34202;52.536;6.042;2022-10-19T23:33:44;7.30;;;3.80;;
48403;SDS011;34202;52.536;6.042;2022-10-19T23:38:46;13.00;;;6.60;;
48403;SDS011;34202;52.536;6.042;2022-10-19T23:43:48;6.90;;;3.90;;
48403;SDS011;34202;52.536;6.042;2022-10-19T23:48:49;10.80;;;5.20;;
48403;SDS011;34202;52.536;6.042;2022-10-19T23:53:49;7.80;;;4.70;;
48403;SDS011;34202;52.536;6.042;2022-10-19T23:58:51;18.90;;;5.90;;
